createdAt,value
2023-05-14T00:00:18.290Z,18.3342
2023-05-14T00:01:20.010Z,18.3285
2023-05-14T00:02:21.636Z,18.3004
2023-05-14T00:03:23.361Z,18.2375
2023-05-14T00:04:24.895Z,18.2552
2023-05-14T00:05:26.563Z,18.2825
2023-05-14T00:06:28.180Z,18.3079
2023-05-14T00:07:30.273Z,18.3192
2023-05-14T00:08:31.460Z,18.3209
2023-05-14T00:09:33.158Z,18.3215
2023-05-14T00:10:34.766Z,18.2950
2023-05-14T00:11:36.445Z,18.2414
2023-05-14T00:12:38.070Z,18.2081
2023-05-14T00:13:39.701Z,18.1995
2023-05-14T00:14:41.366Z,18.2174
2023-05-14T00:15:43.017Z,18.2605
2023-05-14T00:16:44.629Z,18.2685
2023-05-14T00:17:46.380Z,18.2658
2023-05-14T00:18:47.916Z,18.2617
2023-05-14T00:19:49.571Z,18.2297
2023-05-14T00:20:51.728Z,18.1911
2023-05-14T00:21:52.832Z,18.1779
2023-05-14T00:22:54.539Z,18.1909
2023-05-14T00:23:56.159Z,18.2003
2023-05-14T00:24:57.822Z,18.2324
2023-05-14T00:25:59.426Z,18.2496
2023-05-14T00:27:01.079Z,18.2552
2023-05-14T00:28:02.744Z,18.2367
2023-05-14T00:29:04.331Z,18.2013
2023-05-14T00:30:06.113Z,18.1627
2023-05-14T00:31:07.697Z,18.1648
2023-05-14T00:32:09.258Z,18.1833
2023-05-14T00:33:10.998Z,18.2009
2023-05-14T00:34:12.568Z,18.1946
2023-05-14T00:35:14.251Z,18.2059
2023-05-14T00:36:15.847Z,18.1843
2023-05-14T00:37:17.536Z,18.1128
2023-05-14T00:38:19.278Z,18.1342
2023-05-14T00:39:20.754Z,18.1755
2023-05-14T00:40:22.871Z,18.2083
2023-05-14T00:41:24.065Z,18.2091
2023-05-14T00:42:25.724Z,18.1855
2023-05-14T00:43:27.386Z,18.1405
2023-05-14T00:44:29.089Z,18.1147
2023-05-14T00:45:30.637Z,18.0947
2023-05-14T00:46:32.324Z,18.0884
2023-05-14T00:47:34.030Z,18.1151
2023-05-14T00:48:35.623Z,18.1469
2023-05-14T00:49:37.248Z,18.1588
2023-05-14T00:50:38.970Z,18.1748
2023-05-14T00:51:40.524Z,18.1502
2023-05-14T00:52:42.255Z,18.1329
2023-05-14T00:53:43.859Z,18.0990
2023-05-14T00:54:45.556Z,18.0873
2023-05-14T00:55:47.027Z,18.0966
2023-05-14T00:56:48.754Z,18.1085
2023-05-14T00:57:50.317Z,18.1247
2023-05-14T00:58:52.996Z,18.1216
2023-05-14T00:59:53.753Z,18.1011
2023-05-14T01:00:55.291Z,18.0528
2023-05-14T01:01:56.922Z,18.0711
2023-05-14T01:02:58.701Z,18.0853
2023-05-14T01:04:00.290Z,18.1108
2023-05-14T01:05:02.319Z,18.1198
2023-05-14T01:06:03.495Z,18.1251
2023-05-14T01:07:05.139Z,18.0894
2023-05-14T01:08:06.770Z,18.0703
2023-05-14T01:09:08.431Z,18.0594
2023-05-14T01:10:11.044Z,18.0927
2023-05-14T01:11:11.753Z,18.1243
2023-05-14T01:12:13.355Z,18.1099
2023-05-14T01:13:14.968Z,18.1079
2023-05-14T01:14:17.108Z,18.0701
2023-05-14T01:15:18.613Z,18.0668
2023-05-14T01:16:20.774Z,18.0713
2023-05-14T01:17:21.534Z,18.0956
2023-05-14T01:18:23.218Z,18.1064
2023-05-14T01:19:24.915Z,18.0917
2023-05-14T01:20:26.639Z,18.0559
2023-05-14T01:21:28.201Z,18.0261
2023-05-14T01:22:29.919Z,18.0087
2023-05-14T01:23:31.398Z,18.0208
2023-05-14T01:24:33.085Z,18.0452
2023-05-14T01:25:34.789Z,18.0693
2023-05-14T01:26:36.472Z,18.0647
2023-05-14T01:27:38.704Z,18.0475
2023-05-14T01:28:39.794Z,18.0019
2023-05-14T01:29:41.317Z,17.9818
2023-05-14T01:30:43.355Z,17.9998
2023-05-14T01:31:44.651Z,18.0292
2023-05-14T01:32:46.322Z,18.0313
2023-05-14T01:33:47.889Z,18.0226
2023-05-14T01:34:49.542Z,17.9772
2023-05-14T01:35:51.251Z,17.9454
2023-05-14T01:36:53.263Z,17.9606
2023-05-14T01:37:54.502Z,17.9965
2023-05-14T01:38:56.109Z,18.0345
2023-05-14T01:39:57.798Z,18.0323
2023-05-14T01:40:59.426Z,17.9811
2023-05-14T01:42:01.318Z,18.0074
2023-05-14T01:43:02.759Z,18.0011
2023-05-14T01:44:04.485Z,18.0013
2023-05-14T01:45:05.973Z,18.0173
2023-05-14T01:46:07.669Z,18.0228
2023-05-14T01:47:09.800Z,18.0463
2023-05-14T01:48:11.140Z,18.0463
2023-05-14T01:49:12.542Z,18.0475
2023-05-14T01:50:14.241Z,17.9933
2023-05-14T01:51:15.861Z,17.9703
2023-05-14T01:52:17.814Z,17.9826
2023-05-14T01:53:19.216Z,18.0109
2023-05-14T01:54:20.824Z,17.9965
2023-05-14T01:55:22.451Z,17.9779
2023-05-14T01:56:24.119Z,17.9366
2023-05-14T01:57:25.796Z,17.9345
2023-05-14T01:58:27.386Z,17.9417
2023-05-14T01:59:29.104Z,17.9659
2023-05-14T02:00:30.613Z,17.9705
2023-05-14T02:01:33.325Z,17.9703
2023-05-14T02:02:33.969Z,17.9608
2023-05-14T02:03:35.576Z,17.9614
2023-05-14T02:04:37.203Z,17.9325
2023-05-14T02:05:38.841Z,17.9388
2023-05-14T02:06:40.710Z,17.9694
2023-05-14T02:07:42.195Z,18.0054
2023-05-14T02:08:43.752Z,18.0333
2023-05-14T02:09:45.457Z,18.0333
2023-05-14T02:10:47.048Z,18.0407
2023-05-14T02:11:48.795Z,17.9910
2023-05-14T02:12:50.386Z,17.9781
2023-05-14T02:13:52.045Z,17.9462
2023-05-14T02:14:53.639Z,17.9388
2023-05-14T02:15:55.350Z,17.9581
2023-05-14T02:16:56.949Z,17.9594
2023-05-14T02:17:58.836Z,17.9889
2023-05-14T02:19:01.281Z,18.0241
2023-05-14T02:20:01.878Z,18.0163
2023-05-14T02:21:03.549Z,17.9933
2023-05-14T02:22:05.164Z,17.9516
2023-05-14T02:23:07.761Z,17.9672
2023-05-14T02:24:08.498Z,17.9594
2023-05-14T02:25:10.080Z,17.9397
2023-05-14T02:26:11.708Z,17.9507
2023-05-14T02:27:13.395Z,17.9801
2023-05-14T02:28:15.747Z,17.9857
2023-05-14T02:29:16.678Z,17.9799
2023-05-14T02:30:18.296Z,17.9629
2023-05-14T02:31:20.068Z,17.9423
2023-05-14T02:32:21.603Z,17.9627
2023-05-14T02:33:23.375Z,17.9649
2023-05-14T02:34:25.051Z,17.9910
2023-05-14T02:35:26.542Z,17.9616
2023-05-14T02:36:28.245Z,17.9520
2023-05-14T02:37:29.824Z,17.9407
2023-05-14T02:38:31.491Z,17.9528
2023-05-14T02:39:33.077Z,17.9516
2023-05-14T02:40:34.773Z,17.9271
2023-05-14T02:41:36.346Z,17.9107
2023-05-14T02:42:38.221Z,17.8980
2023-05-14T02:43:39.641Z,17.8636
2023-05-14T02:44:41.334Z,17.8977
2023-05-14T02:45:42.968Z,17.9056
2023-05-14T02:46:44.623Z,17.9121
2023-05-14T02:47:46.384Z,17.9442
2023-05-14T02:48:48.739Z,17.9520
2023-05-14T02:49:49.526Z,17.9462
2023-05-14T02:50:51.222Z,17.9101
2023-05-14T02:51:52.799Z,17.8838
2023-05-14T02:52:54.703Z,17.8283
2023-05-14T02:53:57.196Z,17.9249
2023-05-14T02:54:58.866Z,18.1520
2023-05-14T02:55:59.622Z,18.4240
2023-05-14T02:57:01.188Z,18.7438
2023-05-14T02:58:02.863Z,18.9761
2023-05-14T02:59:04.579Z,19.1164
2023-05-14T03:00:06.151Z,19.1690
2023-05-14T03:01:07.867Z,19.2005
2023-05-14T03:02:09.407Z,19.1869
2023-05-14T03:03:11.118Z,19.2267
2023-05-14T03:04:12.688Z,19.2173
2023-05-14T03:05:14.314Z,19.2013
2023-05-14T03:06:15.995Z,19.1807
2023-05-14T03:07:17.643Z,19.1419
2023-05-14T03:08:19.329Z,19.2087
2023-05-14T03:09:20.900Z,19.2253
2023-05-14T03:10:22.686Z,19.3060
2023-05-14T03:11:24.340Z,19.3319
2023-05-14T03:12:25.821Z,19.3323
2023-05-14T03:13:27.507Z,19.2465
2023-05-14T03:14:29.146Z,19.2487
2023-05-14T03:15:30.791Z,19.2454
2023-05-14T03:16:33.379Z,19.3473
2023-05-14T03:17:34.088Z,19.3997
2023-05-14T03:18:35.836Z,19.3931
2023-05-14T03:19:37.370Z,19.3894
2023-05-14T03:20:38.932Z,19.3861
2023-05-14T03:21:40.630Z,19.3445
2023-05-14T03:22:42.235Z,19.3151
2023-05-14T03:23:43.969Z,19.3040
2023-05-14T03:24:45.538Z,19.3839
2023-05-14T03:25:47.562Z,19.4646
2023-05-14T03:26:49.208Z,19.4679
2023-05-14T03:27:50.593Z,19.4646
2023-05-14T03:28:52.100Z,19.3917
2023-05-14T03:29:53.746Z,19.4515
2023-05-14T03:30:55.745Z,19.5266
2023-05-14T03:31:57.354Z,19.6406
2023-05-14T03:32:58.990Z,19.6330
2023-05-14T03:34:00.409Z,19.5776
2023-05-14T03:35:02.017Z,19.4724
2023-05-14T03:36:03.686Z,19.5340
2023-05-14T03:37:05.266Z,19.5338
2023-05-14T03:38:07.008Z,19.6002
2023-05-14T03:39:08.648Z,19.6854
2023-05-14T03:40:10.267Z,19.6678
2023-05-14T03:41:11.864Z,19.6178
2023-05-14T03:42:13.568Z,19.5722
2023-05-14T03:43:15.160Z,19.6211
2023-05-14T03:44:16.854Z,19.6828
2023-05-14T03:45:18.558Z,19.7292
2023-05-14T03:46:20.129Z,19.7308
2023-05-14T03:47:22.064Z,19.6934
2023-05-14T03:48:23.841Z,19.6583
2023-05-14T03:49:25.067Z,19.6406
2023-05-14T03:50:26.714Z,19.6201
2023-05-14T03:51:28.304Z,19.5831
2023-05-14T03:52:30.057Z,19.5581
2023-05-14T03:53:31.659Z,19.5965
2023-05-14T03:54:33.271Z,19.6435
2023-05-14T03:55:34.862Z,19.6378
2023-05-14T03:56:36.612Z,19.5776
2023-05-14T03:57:38.198Z,19.5554
2023-05-14T03:58:39.866Z,19.5796
2023-05-14T03:59:41.465Z,19.6092
2023-05-14T04:00:43.094Z,19.6659
2023-05-14T04:01:44.923Z,19.6678
2023-05-14T04:02:46.562Z,19.6786
2023-05-14T04:03:48.580Z,19.6805
2023-05-14T04:04:49.814Z,19.6943
2023-05-14T04:05:51.878Z,19.7169
2023-05-14T04:06:53.922Z,19.7171
2023-05-14T04:07:54.593Z,19.6986
2023-05-14T04:08:56.361Z,19.7206
2023-05-14T04:09:57.921Z,19.7409
2023-05-14T04:10:59.524Z,19.7487
2023-05-14T04:12:01.186Z,19.7859
2023-05-14T04:13:02.837Z,19.7976
2023-05-14T04:14:05.367Z,19.8126
2023-05-14T04:15:06.149Z,19.7355
2023-05-14T04:16:07.835Z,19.7590
2023-05-14T04:17:09.447Z,19.7879
2023-05-14T04:18:11.029Z,19.7764
2023-05-14T04:19:12.787Z,19.8181
2023-05-14T04:20:14.348Z,19.7986
2023-05-14T04:21:16.039Z,19.8364
2023-05-14T04:22:17.612Z,19.8537
2023-05-14T04:23:19.233Z,19.7355
2023-05-14T04:24:20.908Z,19.7544
2023-05-14T04:25:22.664Z,19.8224
2023-05-14T04:26:24.165Z,19.8656
2023-05-14T04:27:25.892Z,19.8939
2023-05-14T04:28:27.516Z,19.9036
2023-05-14T04:29:29.176Z,19.7717
2023-05-14T04:30:30.889Z,19.8113
2023-05-14T04:31:33.440Z,19.8761
2023-05-14T04:32:34.088Z,19.9159
2023-05-14T04:33:35.722Z,19.9796
2023-05-14T04:34:37.342Z,20.0283
2023-05-14T04:35:39.023Z,20.0178
2023-05-14T04:36:40.639Z,19.8204
2023-05-14T04:37:42.368Z,19.7378
2023-05-14T04:38:43.994Z,19.7076
2023-05-14T04:39:45.586Z,19.7596
2023-05-14T04:40:47.227Z,19.8707
2023-05-14T04:41:48.876Z,19.9106
2023-05-14T04:42:50.580Z,19.9718
2023-05-14T04:43:52.140Z,20.0278
2023-05-14T04:44:53.811Z,19.9868
2023-05-14T04:45:55.432Z,19.8374
2023-05-14T04:46:57.136Z,19.8915
2023-05-14T04:47:58.768Z,19.9890
2023-05-14T04:49:00.361Z,20.0523
2023-05-14T04:50:02.137Z,20.0656
2023-05-14T04:51:05.634Z,19.9757
2023-05-14T04:52:05.318Z,19.9884
2023-05-14T04:53:06.985Z,20.1453
2023-05-14T04:54:08.597Z,20.4732
2023-05-14T04:55:10.287Z,20.8189
2023-05-14T04:56:11.965Z,21.1387
2023-05-14T04:57:13.597Z,21.5130
2023-05-14T04:58:15.174Z,21.8533
2023-05-14T04:59:16.904Z,22.2662
2023-05-14T05:00:19.394Z,22.7828
2023-05-14T05:01:20.177Z,23.1560
2023-05-14T05:02:21.798Z,23.4309
2023-05-14T05:03:23.408Z,23.7334
2023-05-14T05:04:25.082Z,24.0674
2023-05-14T05:05:26.698Z,24.4366
2023-05-14T05:06:28.317Z,24.6837
2023-05-14T05:07:30.073Z,24.8003
2023-05-14T05:08:31.700Z,24.8449
2023-05-14T05:09:33.275Z,24.9834
2023-05-14T05:10:34.936Z,25.2387
2023-05-14T05:11:36.619Z,25.4457
2023-05-14T05:12:39.180Z,25.3905
2023-05-14T05:13:39.894Z,25.3917
2023-05-14T05:14:41.436Z,25.4817
2023-05-14T05:15:43.535Z,25.6629
2023-05-14T05:16:45.655Z,25.9124
2023-05-14T05:17:46.436Z,25.8818
2023-05-14T05:18:48.060Z,25.8518
2023-05-14T05:19:49.660Z,25.7779
2023-05-14T05:20:51.279Z,25.9137
2023-05-14T05:21:52.927Z,26.1285
2023-05-14T05:22:54.615Z,26.2368
2023-05-14T05:23:56.272Z,26.0909
2023-05-14T05:24:57.845Z,26.0796
2023-05-14T05:25:59.549Z,26.1049
2023-05-14T05:27:01.249Z,26.1626
2023-05-14T05:28:02.839Z,26.3914
2023-05-14T05:29:04.465Z,26.4882
2023-05-14T05:30:06.233Z,26.4223
2023-05-14T05:31:07.857Z,26.3752
2023-05-14T05:32:09.436Z,26.3676
2023-05-14T05:33:11.266Z,26.5022
2023-05-14T05:34:12.726Z,26.7435
2023-05-14T05:35:14.501Z,26.6751
2023-05-14T05:36:16.077Z,26.6170
2023-05-14T05:37:17.784Z,26.4946
2023-05-14T05:38:19.424Z,26.5644
2023-05-14T05:39:21.067Z,26.7973
2023-05-14T05:40:22.770Z,26.8210
2023-05-14T05:41:24.316Z,26.6609
2023-05-14T05:42:25.913Z,26.6390
2023-05-14T05:43:27.582Z,26.6712
2023-05-14T05:44:29.263Z,26.8134
2023-05-14T05:45:30.867Z,27.0368
2023-05-14T05:46:32.603Z,26.8783
2023-05-14T05:47:34.143Z,26.8649
2023-05-14T05:48:35.763Z,26.8212
2023-05-14T05:49:37.455Z,26.8308
2023-05-14T05:50:39.078Z,26.9999
2023-05-14T05:51:40.714Z,27.0459
2023-05-14T05:52:42.314Z,26.9284
2023-05-14T05:53:44.903Z,26.9610
2023-05-14T05:54:45.671Z,26.8900
2023-05-14T05:55:47.317Z,26.8933
2023-05-14T05:56:48.888Z,27.0522
2023-05-14T05:57:50.602Z,27.0379
2023-05-14T05:58:52.949Z,26.9576
2023-05-14T05:59:54.911Z,26.9329
2023-05-14T06:00:55.468Z,26.8894
2023-05-14T06:01:57.194Z,26.9785
2023-05-14T06:02:58.822Z,27.1560
2023-05-14T06:04:00.512Z,26.8896
2023-05-14T06:05:02.214Z,26.9144
2023-05-14T06:06:03.734Z,26.8068
2023-05-14T06:07:05.651Z,26.8304
2023-05-14T06:08:07.028Z,27.0418
2023-05-14T06:09:08.686Z,27.0527
2023-05-14T06:10:10.358Z,26.9204
2023-05-14T06:11:11.894Z,26.9680
2023-05-14T06:12:13.624Z,26.9541
2023-05-14T06:13:15.229Z,26.9565
2023-05-14T06:14:16.937Z,26.9900
2023-05-14T06:15:18.917Z,27.1463
2023-05-14T06:16:20.199Z,27.0362
2023-05-14T06:17:21.811Z,27.0695
2023-05-14T06:18:23.485Z,27.0260
2023-05-14T06:19:25.145Z,27.0759
2023-05-14T06:20:26.906Z,27.2125
2023-05-14T06:21:28.408Z,27.2365
2023-05-14T06:22:30.041Z,27.2384
2023-05-14T06:23:31.641Z,27.2472
2023-05-14T06:24:33.448Z,27.1453
2023-05-14T06:25:34.976Z,27.1685
2023-05-14T06:26:36.632Z,27.3349
2023-05-14T06:27:38.246Z,27.2509
2023-05-14T06:28:39.992Z,27.1513
2023-05-14T06:29:41.563Z,27.2065
2023-05-14T06:30:43.283Z,27.1784
2023-05-14T06:31:44.898Z,27.3263
2023-05-14T06:32:46.593Z,27.5385
2023-05-14T06:33:48.112Z,27.4818
2023-05-14T06:34:49.883Z,27.5713
2023-05-14T06:35:51.446Z,27.5278
2023-05-14T06:36:53.103Z,27.5072
2023-05-14T06:37:54.803Z,27.6309
2023-05-14T06:38:56.368Z,27.7235
2023-05-14T06:39:58.172Z,27.5391
2023-05-14T06:40:59.707Z,27.5522
2023-05-14T06:42:01.367Z,27.5181
2023-05-14T06:43:02.987Z,27.5052
2023-05-14T06:44:04.603Z,27.6718
2023-05-14T06:45:06.256Z,27.6473
2023-05-14T06:46:08.426Z,27.4337
2023-05-14T06:47:09.615Z,27.5290
2023-05-14T06:48:11.235Z,27.4713
2023-05-14T06:49:12.852Z,27.4941
2023-05-14T06:50:14.561Z,27.6814
2023-05-14T06:51:16.901Z,27.6313
2023-05-14T06:52:17.766Z,27.5442
2023-05-14T06:53:19.419Z,27.5836
2023-05-14T06:54:21.068Z,27.4553
2023-05-14T06:55:22.700Z,27.3840
2023-05-14T06:56:24.405Z,27.4943
2023-05-14T06:57:25.943Z,27.6305
2023-05-14T06:58:27.627Z,27.6494
2023-05-14T06:59:29.216Z,27.5331
2023-05-14T07:00:30.980Z,27.5785
2023-05-14T07:01:32.532Z,27.5411
2023-05-14T07:02:34.158Z,27.6077
2023-05-14T07:03:36.301Z,27.6802
2023-05-14T07:04:37.469Z,27.6364
2023-05-14T07:05:39.048Z,27.5064
2023-05-14T07:06:40.801Z,27.5586
2023-05-14T07:07:42.356Z,27.5660
2023-05-14T07:08:44.051Z,27.7564
2023-05-14T07:09:45.630Z,27.7478
2023-05-14T07:10:47.385Z,27.6518
2023-05-14T07:11:49.480Z,27.7882
2023-05-14T07:12:50.616Z,27.8490
2023-05-14T07:13:52.266Z,27.8494
2023-05-14T07:14:53.933Z,28.0245
2023-05-14T07:15:55.533Z,28.0203
2023-05-14T07:16:57.245Z,27.9045
2023-05-14T07:17:58.859Z,28.0138
2023-05-14T07:19:00.558Z,27.8778
2023-05-14T07:20:02.134Z,27.8992
2023-05-14T07:21:03.801Z,28.1005
2023-05-14T07:22:05.414Z,27.9335
2023-05-14T07:23:07.050Z,27.8525
2023-05-14T07:24:08.716Z,27.9022
2023-05-14T07:25:10.344Z,27.7196
2023-05-14T07:26:12.015Z,27.8297
2023-05-14T07:27:13.615Z,27.9692
2023-05-14T07:28:15.254Z,27.7973
2023-05-14T07:29:16.983Z,27.6732
2023-05-14T07:30:18.533Z,27.7761
2023-05-14T07:31:20.309Z,27.7800
2023-05-14T07:32:21.852Z,27.9014
2023-05-14T07:33:23.509Z,28.0678
2023-05-14T07:34:25.148Z,27.9425
2023-05-14T07:35:26.747Z,27.9240
2023-05-14T07:36:28.426Z,27.9752
2023-05-14T07:37:30.109Z,27.8622
2023-05-14T07:38:31.720Z,27.9941
2023-05-14T07:39:33.345Z,28.0604
2023-05-14T07:40:34.980Z,27.7685
2023-05-14T07:41:37.333Z,27.8125
2023-05-14T07:42:38.263Z,27.6997
2023-05-14T07:43:39.949Z,27.6280
2023-05-14T07:44:41.616Z,27.8406
2023-05-14T07:45:43.214Z,27.8747
2023-05-14T07:46:44.928Z,27.7732
2023-05-14T07:47:46.534Z,27.8698
2023-05-14T07:48:48.126Z,27.8234
2023-05-14T07:49:49.778Z,27.8059
2023-05-14T07:50:51.444Z,27.8028
2023-05-14T07:51:53.843Z,27.8564
2023-05-14T07:52:54.813Z,27.9010
2023-05-14T07:53:56.512Z,27.9121
2023-05-14T07:54:58.279Z,27.7079
2023-05-14T07:55:59.770Z,27.8135
2023-05-14T07:57:01.511Z,27.9024
2023-05-14T07:58:03.574Z,27.8838
2023-05-14T07:59:04.751Z,27.9542
2023-05-14T08:00:06.545Z,28.0651
2023-05-14T08:01:09.078Z,27.9690
2023-05-14T08:02:09.711Z,27.9620
2023-05-14T08:03:11.452Z,28.0269
2023-05-14T08:04:13.159Z,27.9133
2023-05-14T08:05:14.608Z,27.8314
2023-05-14T08:06:16.273Z,27.9770
2023-05-14T08:07:17.906Z,28.0620
2023-05-14T08:08:19.516Z,28.1479
2023-05-14T08:09:21.210Z,28.3022
2023-05-14T08:10:24.025Z,28.1941
2023-05-14T08:11:24.420Z,28.2194
2023-05-14T08:12:27.094Z,28.0830
2023-05-14T08:13:27.722Z,27.7404
2023-05-14T08:14:29.632Z,27.5072
2023-05-14T08:15:31.023Z,27.3655
2023-05-14T08:16:32.785Z,26.9491
2023-05-14T08:17:34.363Z,26.6704
2023-05-14T08:18:36.040Z,26.3855
2023-05-14T08:19:38.561Z,26.1308
2023-05-14T08:20:39.294Z,26.0971
2023-05-14T08:21:41.052Z,26.0856
2023-05-14T08:22:42.685Z,25.8288
2023-05-14T08:23:44.552Z,25.7272
2023-05-14T08:24:45.926Z,25.4998
2023-05-14T08:25:47.519Z,25.4839
2023-05-14T08:26:49.264Z,25.6107
2023-05-14T08:27:50.823Z,25.6259
2023-05-14T08:28:52.488Z,25.4751
2023-05-14T08:29:54.056Z,25.3398
2023-05-14T08:30:55.759Z,25.2311
2023-05-14T08:31:57.610Z,25.2664
2023-05-14T08:32:59.716Z,25.3798
2023-05-14T08:34:00.687Z,25.2997
2023-05-14T08:35:02.278Z,25.1966
2023-05-14T08:36:03.996Z,25.0023
2023-05-14T08:37:05.640Z,24.9729
2023-05-14T08:38:08.266Z,25.0696
2023-05-14T08:39:09.029Z,25.1606
2023-05-14T08:40:10.523Z,25.0676
2023-05-14T08:41:12.317Z,24.9090
2023-05-14T08:42:13.858Z,24.7599
2023-05-14T08:43:15.580Z,24.7422
2023-05-14T08:44:17.155Z,24.8983
2023-05-14T08:45:18.864Z,24.9417
2023-05-14T08:46:20.422Z,24.8971
2023-05-14T08:47:22.123Z,24.7952
2023-05-14T08:48:23.774Z,24.7395
2023-05-14T08:49:25.366Z,24.8116
2023-05-14T08:50:27.455Z,24.9571
2023-05-14T08:51:28.636Z,24.9341
2023-05-14T08:52:30.283Z,24.8714
2023-05-14T08:53:31.953Z,24.7291
2023-05-14T08:54:33.619Z,24.7219
2023-05-14T08:55:35.213Z,24.8449
2023-05-14T08:56:36.830Z,24.9460
2023-05-14T08:57:38.542Z,24.7102
2023-05-14T08:58:40.200Z,24.6440
2023-05-14T08:59:41.894Z,24.5386
2023-05-14T09:00:43.459Z,24.5896
2023-05-14T09:01:45.146Z,24.7521
2023-05-14T09:02:46.805Z,24.7901
2023-05-14T09:03:48.351Z,24.5908
2023-05-14T09:04:49.979Z,24.4567
2023-05-14T09:05:51.807Z,24.3942
2023-05-14T09:06:53.305Z,24.4945
2023-05-14T09:07:55.009Z,24.6828
2023-05-14T09:08:56.586Z,24.6611
2023-05-14T09:09:58.322Z,24.5538
2023-05-14T09:11:00.868Z,24.3562
2023-05-14T09:12:01.583Z,24.2482
2023-05-14T09:13:03.215Z,24.2837
2023-05-14T09:14:04.775Z,24.4006
2023-05-14T09:15:07.250Z,24.2780
2023-05-14T09:16:08.156Z,24.1911
2023-05-14T09:17:09.828Z,24.1042
2023-05-14T09:18:11.372Z,24.1093
2023-05-14T09:19:13.193Z,24.2231
2023-05-14T09:20:14.693Z,24.4016
2023-05-14T09:21:16.491Z,24.3039
2023-05-14T09:22:17.985Z,24.1742
2023-05-14T09:23:19.710Z,24.0592
2023-05-14T09:24:21.381Z,24.0703
2023-05-14T09:25:24.034Z,24.1619
2023-05-14T09:26:24.520Z,24.3041
2023-05-14T09:27:27.244Z,24.0898
2023-05-14T09:28:27.844Z,23.9834
2023-05-14T09:29:29.494Z,23.8633
2023-05-14T09:30:32.522Z,23.7984
2023-05-14T09:31:32.746Z,23.8750
2023-05-14T09:32:35.552Z,23.9602
2023-05-14T09:33:36.116Z,23.7078
2023-05-14T09:34:38.108Z,23.6449
2023-05-14T09:35:39.531Z,23.5595
2023-05-14T09:36:41.165Z,23.5636
2023-05-14T09:37:42.800Z,23.6759
2023-05-14T09:38:44.441Z,23.7682
2023-05-14T09:39:45.982Z,23.6036
2023-05-14T09:40:47.750Z,23.4876
2023-05-14T09:41:49.327Z,23.3822
2023-05-14T09:42:50.982Z,23.3746
2023-05-14T09:43:52.634Z,23.5063
2023-05-14T09:44:54.261Z,23.6363
2023-05-14T09:45:55.960Z,23.5549
2023-05-14T09:46:57.614Z,23.5067
2023-05-14T09:48:00.329Z,23.4307
2023-05-14T09:49:00.806Z,23.4978
2023-05-14T09:50:03.425Z,23.6525
2023-05-14T09:51:04.738Z,23.8267
2023-05-14T09:52:05.728Z,23.7248
2023-05-14T09:53:07.472Z,23.7250
2023-05-14T09:54:09.105Z,23.7057
2023-05-14T09:55:10.675Z,23.7618
2023-05-14T09:56:12.485Z,23.9608
2023-05-14T09:57:14.055Z,24.1079
2023-05-14T09:58:15.667Z,24.0044
2023-05-14T09:59:17.593Z,23.9849
2023-05-14T10:00:18.986Z,23.9438
2023-05-14T10:01:21.704Z,24.0212
2023-05-14T10:02:22.328Z,24.2260
2023-05-14T10:03:23.929Z,24.3347
2023-05-14T10:04:25.511Z,24.2065
2023-05-14T10:05:27.209Z,24.1192
2023-05-14T10:06:28.820Z,24.0835
2023-05-14T10:07:30.449Z,24.1874
2023-05-14T10:08:32.639Z,24.4355
2023-05-14T10:09:33.784Z,24.5212
2023-05-14T10:10:35.385Z,24.5267
2023-05-14T10:11:38.101Z,24.5865
2023-05-14T10:12:38.689Z,24.6338
2023-05-14T10:13:40.282Z,24.7562
2023-05-14T10:14:42.026Z,25.0218
2023-05-14T10:15:43.612Z,25.0318
2023-05-14T10:16:45.274Z,25.0012
2023-05-14T10:17:47.085Z,24.8560
2023-05-14T10:18:48.661Z,24.7132
2023-05-14T10:19:50.223Z,24.7295
2023-05-14T10:20:51.799Z,24.8790
2023-05-14T10:21:53.521Z,24.7630
2023-05-14T10:22:55.138Z,24.5845
2023-05-14T10:23:56.973Z,24.4388
2023-05-14T10:24:58.540Z,24.3669
2023-05-14T10:26:00.201Z,24.4195
2023-05-14T10:27:01.774Z,24.6058
2023-05-14T10:28:03.385Z,24.5294
2023-05-14T10:29:05.026Z,24.5228
2023-05-14T10:30:06.656Z,24.5198
2023-05-14T10:31:08.264Z,24.5222
2023-05-14T10:32:10.062Z,24.6387
2023-05-14T10:33:12.619Z,24.7929
2023-05-14T10:34:13.193Z,24.6393
2023-05-14T10:35:15.863Z,24.6695
2023-05-14T10:36:16.484Z,24.6229
2023-05-14T10:37:18.134Z,24.6107
2023-05-14T10:38:19.712Z,24.7412
2023-05-14T10:39:21.444Z,24.8747
2023-05-14T10:40:23.133Z,24.6771
2023-05-14T10:41:24.762Z,24.6114
2023-05-14T10:42:26.315Z,24.5389
2023-05-14T10:43:28.000Z,24.5734
2023-05-14T10:44:29.632Z,24.8008
2023-05-14T10:45:31.334Z,24.9846
2023-05-14T10:46:32.936Z,24.8464
2023-05-14T10:47:34.605Z,24.7467
2023-05-14T10:48:36.196Z,24.6079
2023-05-14T10:49:43.349Z,24.6112
2023-05-14T10:50:39.516Z,24.7749
2023-05-14T10:51:41.253Z,24.8205
2023-05-14T10:52:42.780Z,24.6196
2023-05-14T10:53:44.494Z,24.5929
2023-05-14T10:54:46.080Z,24.5495
2023-05-14T10:55:47.732Z,24.6358
2023-05-14T10:56:49.407Z,24.8160
2023-05-14T10:57:51.017Z,24.7932
2023-05-14T10:58:52.664Z,24.7328
2023-05-14T10:59:55.171Z,24.6703
2023-05-14T11:00:56.025Z,24.6428
2023-05-14T11:01:57.749Z,24.7736
2023-05-14T11:02:59.368Z,24.9875
2023-05-14T11:04:01.017Z,24.8478
2023-05-14T11:05:04.440Z,24.7340
2023-05-14T11:06:04.235Z,24.6559
2023-05-14T11:07:05.905Z,24.6202
2023-05-14T11:08:07.574Z,24.6915
2023-05-14T11:09:09.131Z,24.8408
2023-05-14T11:10:10.859Z,24.6851
2023-05-14T11:11:12.508Z,24.5430
2023-05-14T11:12:14.065Z,24.4316
2023-05-14T11:13:15.681Z,24.3721
2023-05-14T11:14:17.434Z,24.4548
2023-05-14T11:15:19.029Z,24.5949
2023-05-14T11:16:23.760Z,24.5543
2023-05-14T11:17:22.302Z,24.3920
2023-05-14T11:18:23.958Z,24.2698
2023-05-14T11:19:25.627Z,24.2086
2023-05-14T11:20:27.346Z,24.2139
2023-05-14T11:21:29.007Z,24.3172
2023-05-14T11:22:30.552Z,24.2846
2023-05-14T11:23:32.168Z,24.1241
2023-05-14T11:24:33.832Z,23.9988
2023-05-14T11:25:35.547Z,23.9497
2023-05-14T11:26:38.122Z,24.0120
2023-05-14T11:27:38.762Z,24.1979
2023-05-14T11:28:40.562Z,24.2893
2023-05-14T11:29:42.090Z,24.2046
2023-05-14T11:30:43.712Z,24.1710
2023-05-14T11:31:45.475Z,24.1362
2023-05-14T11:32:47.001Z,24.1664
2023-05-14T11:33:48.641Z,24.3207
2023-05-14T11:34:50.573Z,24.4546
2023-05-14T11:35:51.964Z,24.3922
2023-05-14T11:36:53.547Z,24.3700
2023-05-14T11:37:55.204Z,24.3351
2023-05-14T11:38:56.824Z,24.3624
2023-05-14T11:39:58.558Z,24.5082
2023-05-14T11:41:00.160Z,24.6794
2023-05-14T11:42:01.739Z,24.6364
2023-05-14T11:43:03.425Z,24.6091
2023-05-14T11:44:05.964Z,24.5409
2023-05-14T11:45:06.762Z,24.5764
2023-05-14T11:46:08.436Z,24.7365
2023-05-14T11:47:10.059Z,24.8920
2023-05-14T11:48:11.649Z,24.8186
2023-05-14T11:49:13.308Z,24.8338
2023-05-14T11:50:14.906Z,24.8151
2023-05-14T11:51:16.717Z,24.8897
2023-05-14T11:52:18.209Z,25.0626
2023-05-14T11:53:19.873Z,25.2218
2023-05-14T11:54:21.593Z,25.1787
2023-05-14T11:55:23.207Z,25.1337
2023-05-14T11:56:24.820Z,25.1128
2023-05-14T11:57:26.503Z,25.1497
2023-05-14T11:58:28.048Z,25.2533
2023-05-14T11:59:29.663Z,25.3334
2023-05-14T12:00:31.317Z,25.3026
2023-05-14T12:01:33.016Z,25.1522
2023-05-14T12:02:34.712Z,24.8991
2023-05-14T12:03:36.386Z,24.7426
2023-05-14T12:04:37.939Z,24.7067
2023-05-14T12:05:40.039Z,24.6874
2023-05-14T12:06:41.189Z,24.5146
2023-05-14T12:07:42.820Z,24.3429
2023-05-14T12:08:45.483Z,24.1755
2023-05-14T12:09:46.077Z,24.0872
2023-05-14T12:10:47.753Z,24.1104
2023-05-14T12:11:49.412Z,24.1915
2023-05-14T12:12:51.064Z,24.1184
2023-05-14T12:13:52.643Z,23.9795
2023-05-14T12:14:54.307Z,23.8606
2023-05-14T12:15:56.015Z,23.8197
2023-05-14T12:16:57.653Z,23.8405
2023-05-14T12:17:59.276Z,23.9840
2023-05-14T12:19:01.560Z,24.0681
2023-05-14T12:20:02.545Z,23.9824
2023-05-14T12:21:04.230Z,23.9292
2023-05-14T12:22:06.045Z,23.9054
2023-05-14T12:23:07.658Z,23.9569
2023-05-14T12:24:09.229Z,24.1426
2023-05-14T12:25:10.924Z,24.2595